createdAt,value
2018-04-02T00:01:34.141Z,71.40
2018-04-02T00:03:35.136Z,71.07
2018-04-02T00:05:36.154Z,69.83
2018-04-02T00:07:37.271Z,65.63
2018-04-02T00:09:38.302Z,60.93
2018-04-02T00:11:40.080Z,64.03
2018-04-02T00:13:41.307Z,64.73
2018-04-02T00:15:42.704Z,64.67
2018-04-02T00:17:43.844Z,78.90
2018-04-02T00:19:44.948Z,76.83
2018-04-02T00:21:45.992Z,71.27
2018-04-02T00:23:47.052Z,80.30
2018-04-02T00:25:47.993Z,74.03
2018-04-02T00:27:49.044Z,76.83
2018-04-02T00:29:50.140Z,83.97
2018-04-02T00:31:51.140Z,74.47
2018-04-02T00:33:52.138Z,74.63
2018-04-02T00:35:53.127Z,83.73
2018-04-02T00:37:54.181Z,82.63
2018-04-02T00:39:55.209Z,77.70
2018-04-02T00:41:56.154Z,68.47
2018-04-02T00:43:57.174Z,77.00
2018-04-02T00:45:58.299Z,77.87
2018-04-02T00:47:59.326Z,74.70
2018-04-02T00:50:00.313Z,78.50
2018-04-02T00:52:01.355Z,82.80
2018-04-02T00:54:02.542Z,90.10
2018-04-02T00:56:03.550Z,109.73
2018-04-02T00:58:04.602Z,89.27
2018-04-02T01:00:05.600Z,85.20
2018-04-02T01:02:06.611Z,87.10
2018-04-02T01:04:07.599Z,89.63
2018-04-02T01:06:08.637Z,87.40
2018-04-02T01:08:09.652Z,95.43
2018-04-02T01:10:10.849Z,102.83
2018-04-02T01:12:12.060Z,105.23
2018-04-02T01:14:13.376Z,112.33
2018-04-02T01:16:16.622Z,102.70
2018-04-02T01:18:17.658Z,106.27
2018-04-02T01:20:18.729Z,109.03
2018-04-02T01:22:19.795Z,105.20
2018-04-02T01:24:21.557Z,101.63
2018-04-02T01:26:22.528Z,106.77
2018-04-02T01:28:25.131Z,119.37
2018-04-02T01:30:26.958Z,126.47
2018-04-02T01:32:28.803Z,119.60
2018-04-02T01:34:29.837Z,125.90
2018-04-02T01:36:30.951Z,120.07
2018-04-02T01:38:32.054Z,124.17
2018-04-02T01:40:33.170Z,132.17
2018-04-02T01:42:35.908Z,111.60
2018-04-02T01:44:37.017Z,121.93
2018-04-02T01:46:38.024Z,123.83
2018-04-02T01:48:40.892Z,135.77
2018-04-02T01:50:42.318Z,112.97
2018-04-02T01:52:43.426Z,113.30
2018-04-02T01:54:44.515Z,127.70
2018-04-02T01:56:45.596Z,131.17
2018-04-02T01:58:47.566Z,122.80
2018-04-02T02:00:48.590Z,123.80
2018-04-02T02:02:49.566Z,117.57
2018-04-02T02:04:50.594Z,114.50
2018-04-02T02:06:51.571Z,111.93
2018-04-02T02:08:53.551Z,114.87
2018-04-02T02:10:54.616Z,105.03
2018-04-02T02:12:55.622Z,117.17
2018-04-02T02:14:56.808Z,115.23
2018-04-02T02:16:57.912Z,105.47
2018-04-02T02:19:00.198Z,105.03
2018-04-02T02:21:01.364Z,113.60
2018-04-02T02:23:03.073Z,103.90
2018-04-02T02:25:04.418Z,110.13
2018-04-02T02:27:06.200Z,105.87
2018-04-02T02:29:07.223Z,95.70
2018-04-02T02:31:08.254Z,103.60
2018-04-02T02:33:09.323Z,108.70
2018-04-02T02:35:10.432Z,114.13
2018-04-02T02:37:11.506Z,104.50
2018-04-02T02:39:12.795Z,102.80
2018-04-02T02:41:14.526Z,109.30
2018-04-02T02:43:15.686Z,107.43
2018-04-02T02:45:16.939Z,110.03
2018-04-02T02:47:18.686Z,111.60
2018-04-02T02:49:19.823Z,107.07
2018-04-02T02:51:22.136Z,108.60
2018-04-02T02:53:23.314Z,106.70
2018-04-02T02:55:24.462Z,98.77
2018-04-02T02:57:25.462Z,114.63
2018-04-02T02:59:26.433Z,116.57
2018-04-02T03:01:27.467Z,111.30
2018-04-02T03:03:28.601Z,105.40
2018-04-02T03:05:29.772Z,105.47
2018-04-02T03:07:30.848Z,113.97
2018-04-02T03:09:31.928Z,96.87
2018-04-02T03:11:32.973Z,102.73
2018-04-02T03:13:34.877Z,108.27
2018-04-02T03:15:35.944Z,105.97
2018-04-02T03:17:36.953Z,107.43
2018-04-02T03:19:38.748Z,100.83
2018-04-02T03:21:39.751Z,107.90
2018-04-02T03:23:41.722Z,103.70
2018-04-02T03:25:42.822Z,102.23
2018-04-02T03:27:43.915Z,115.07
2018-04-02T03:29:45.096Z,105.70
2018-04-02T03:31:46.276Z,93.00
2018-04-02T03:33:47.587Z,122.07
2018-04-02T03:35:48.595Z,95.43
2018-04-02T03:37:49.608Z,90.60
2018-04-02T03:39:50.576Z,113.80
2018-04-02T03:41:51.551Z,97.60
2018-04-02T03:43:52.589Z,97.57
2018-04-02T03:45:53.634Z,102.43
2018-04-02T03:47:54.621Z,96.43
2018-04-02T03:49:56.451Z,96.00
2018-04-02T03:51:57.489Z,88.37
2018-04-02T03:53:58.633Z,101.67
2018-04-02T03:55:59.747Z,101.10
2018-04-02T03:58:01.593Z,97.60
2018-04-02T04:00:03.013Z,108.37
2018-04-02T04:02:04.749Z,89.30
2018-04-02T04:04:05.864Z,93.73
2018-04-02T04:06:07.584Z,95.43
2018-04-02T04:08:08.528Z,86.63
2018-04-02T04:10:09.556Z,88.80
2018-04-02T04:12:10.772Z,93.47
2018-04-02T04:14:12.617Z,86.50
2018-04-02T04:16:14.071Z,93.03
2018-04-02T04:18:15.566Z,101.30
2018-04-02T04:20:17.476Z,100.27
2018-04-02T04:22:18.656Z,91.80
2018-04-02T04:24:19.704Z,85.37
2018-04-02T04:26:20.703Z,87.33
2018-04-02T04:28:21.761Z,92.50
2018-04-02T04:30:22.772Z,92.73
2018-04-02T04:32:23.937Z,101.17
2018-04-02T04:34:24.957Z,88.43
2018-04-02T04:36:26.703Z,96.87
2018-04-02T04:38:27.652Z,94.60
2018-04-02T04:40:28.710Z,94.10
2018-04-02T04:42:30.061Z,98.93
2018-04-02T04:44:31.727Z,85.83
2018-04-02T04:46:32.734Z,94.40
2018-04-02T04:48:33.727Z,82.63
2018-04-02T04:50:34.747Z,97.97
2018-04-02T04:52:35.723Z,101.60
2018-04-02T04:54:38.695Z,95.33
2018-04-02T04:56:39.742Z,92.70
2018-04-02T04:58:41.237Z,75.17
2018-04-02T05:00:42.489Z,83.13
2018-04-02T05:02:44.647Z,91.00
2018-04-02T05:04:46.168Z,87.53
2018-04-02T05:06:47.720Z,101.73
2018-04-02T05:08:48.857Z,78.93
2018-04-02T05:10:49.899Z,97.90
2018-04-02T05:12:50.933Z,93.73
2018-04-02T05:14:52.021Z,87.37
2018-04-02T05:16:53.118Z,92.27
2018-04-02T05:18:54.295Z,101.37
2018-04-02T05:20:55.832Z,86.47
2018-04-02T05:22:56.836Z,96.87
2018-04-02T05:24:57.892Z,86.07
2018-04-02T05:26:59.122Z,87.53
2018-04-02T05:29:00.601Z,96.73
2018-04-02T05:31:01.867Z,92.63
2018-04-02T05:33:03.154Z,97.43
2018-04-02T05:35:04.458Z,92.03
2018-04-02T05:37:05.613Z,89.30
2018-04-02T05:39:06.782Z,86.83
2018-04-02T05:41:07.854Z,93.27
2018-04-02T05:43:08.804Z,101.63
2018-04-02T05:45:09.808Z,97.30
2018-04-02T05:47:12.095Z,102.83
2018-04-02T05:49:13.295Z,91.77
2018-04-02T05:51:15.051Z,93.63
2018-04-02T05:53:16.287Z,86.20
2018-04-02T05:55:17.417Z,92.50
2018-04-02T05:57:19.106Z,95.17
2018-04-02T05:59:20.159Z,92.03
2018-04-02T06:01:21.840Z,98.80
2018-04-02T06:03:22.836Z,93.47
2018-04-02T06:05:24.539Z,95.43
2018-04-02T06:07:25.503Z,93.30
2018-04-02T06:09:26.470Z,93.03
2018-04-02T06:11:27.422Z,88.10
2018-04-02T06:13:28.475Z,96.60
2018-04-02T06:15:29.576Z,95.43
2018-04-02T06:17:30.649Z,96.00
2018-04-02T06:19:31.707Z,93.13
2018-04-02T06:21:32.664Z,112.00
2018-04-02T06:23:33.591Z,94.67
2018-04-02T06:25:34.629Z,85.13
2018-04-02T06:27:35.591Z,76.80
2018-04-02T06:29:36.566Z,90.17
2018-04-02T06:31:38.308Z,101.60
2018-04-02T06:33:39.187Z,88.33
2018-04-02T06:35:41.142Z,85.27
2018-04-02T06:37:42.290Z,90.43
2018-04-02T06:39:43.361Z,88.00
2018-04-02T06:41:44.472Z,88.20
2018-04-02T06:43:45.778Z,88.23
2018-04-02T06:45:46.866Z,94.50
2018-04-02T06:47:47.830Z,92.10
2018-04-02T06:49:48.816Z,81.80
2018-04-02T06:51:49.759Z,92.00
2018-04-02T06:53:50.719Z,87.40
2018-04-02T06:55:51.680Z,88.67
2018-04-02T06:57:52.628Z,90.87
2018-04-02T06:59:53.787Z,88.13
2018-04-02T07:01:54.772Z,84.80
2018-04-02T07:03:56.596Z,92.67
2018-04-02T07:05:57.534Z,91.60
2018-04-02T07:07:59.561Z,87.93
2018-04-02T07:10:00.634Z,90.90
2018-04-02T07:12:01.697Z,101.57
2018-04-02T07:14:02.696Z,103.87
2018-04-02T07:16:04.520Z,95.20
2018-04-02T07:18:05.496Z,102.80
2018-04-02T07:20:06.554Z,97.80
2018-04-02T07:22:08.247Z,107.33
2018-04-02T07:24:09.191Z,117.00
2018-04-02T07:26:10.265Z,101.83
2018-04-02T07:28:11.380Z,113.90
2018-04-02T07:30:12.468Z,105.50
2018-04-02T07:32:14.446Z,113.67
2018-04-02T07:34:15.864Z,106.27
2018-04-02T07:36:17.810Z,107.07
2018-04-02T07:38:18.871Z,109.77
2018-04-02T07:40:20.030Z,110.87
2018-04-02T07:42:21.016Z,96.87
2018-04-02T07:44:22.012Z,104.27
2018-04-02T07:46:23.631Z,114.90
2018-04-02T07:48:24.595Z,99.57
2018-04-02T07:50:25.591Z,104.17
2018-04-02T07:52:26.668Z,104.33
2018-04-02T07:54:27.627Z,97.77
2018-04-02T07:56:28.577Z,89.10
2018-04-02T07:58:29.604Z,98.53
2018-04-02T08:00:30.660Z,86.27
2018-04-02T08:02:32.112Z,94.17
2018-04-02T08:04:33.062Z,94.40
2018-04-02T08:06:34.107Z,99.27
2018-04-02T08:08:36.220Z,104.30
2018-04-02T08:10:37.162Z,97.40
2018-04-02T08:12:38.881Z,105.10
2018-04-02T08:14:40.097Z,103.07
2018-04-02T08:16:43.357Z,99.97
2018-04-02T08:18:43.899Z,101.93
2018-04-02T08:20:45.728Z,99.40
2018-04-02T08:22:46.801Z,106.33
2018-04-02T08:24:47.747Z,102.30
2018-04-02T08:26:50.142Z,103.63
2018-04-02T08:28:51.858Z,108.07
2018-04-02T08:30:52.798Z,96.80
2018-04-02T08:32:53.731Z,97.60
2018-04-02T08:34:54.676Z,102.77
2018-04-02T08:36:55.651Z,100.47
2018-04-02T08:38:57.042Z,93.87
2018-04-02T08:40:58.757Z,86.00
2018-04-02T08:42:59.843Z,101.87
2018-04-02T08:45:00.910Z,91.93
2018-04-02T08:47:01.881Z,86.50
2018-04-02T08:49:09.174Z,93.33
2018-04-02T08:51:10.375Z,72.33
2018-04-02T08:53:12.447Z,83.37
2018-04-02T08:55:13.636Z,85.03
2018-04-02T08:57:14.862Z,73.80
2018-04-02T08:59:15.972Z,74.53
2018-04-02T09:01:17.007Z,72.20
2018-04-02T09:03:17.991Z,78.47
2018-04-02T09:05:19.038Z,75.17
2018-04-02T09:07:20.025Z,62.90
2018-04-02T09:09:21.720Z,66.10
2018-04-02T09:11:22.683Z,76.33
2018-04-02T09:13:23.678Z,68.03
2018-04-02T09:15:24.685Z,64.97
2018-04-02T09:17:25.643Z,66.43
2018-04-02T09:19:26.661Z,65.83
2018-04-02T09:21:27.674Z,60.80
2018-04-02T09:23:28.631Z,57.47
2018-04-02T09:25:29.671Z,54.33
2018-04-02T09:27:30.686Z,63.97
2018-04-02T09:29:31.658Z,58.13
2018-04-02T09:31:32.716Z,72.00
2018-04-02T09:33:33.712Z,72.60
2018-04-02T09:35:34.653Z,73.73
2018-04-02T09:37:35.711Z,81.17
2018-04-02T09:39:37.091Z,83.30
2018-04-02T09:41:38.951Z,79.50
2018-04-02T09:43:40.047Z,81.73
2018-04-02T09:45:41.330Z,84.33
2018-04-02T09:47:42.562Z,90.30
2018-04-02T09:49:43.781Z,96.17
2018-04-02T09:51:44.944Z,95.97
2018-04-02T09:53:46.165Z,80.63
2018-04-02T09:55:47.213Z,82.53
2018-04-02T09:57:49.055Z,92.90
2018-04-02T09:59:50.564Z,93.40
2018-04-02T10:01:51.540Z,96.00
2018-04-02T10:03:54.481Z,96.13
2018-04-02T10:05:56.272Z,95.57
2018-04-02T10:07:57.374Z,95.23
2018-04-02T10:09:59.133Z,109.57
2018-04-02T10:12:00.047Z,105.07
2018-04-02T10:14:01.023Z,102.37
2018-04-02T10:16:02.051Z,103.97
2018-04-02T10:18:03.112Z,118.47
2018-04-02T10:20:04.411Z,128.17
2018-04-02T10:22:05.371Z,106.80
2018-04-02T10:24:06.765Z,114.70
2018-04-02T10:26:07.679Z,116.60
2018-04-02T10:28:08.619Z,125.80
2018-04-02T10:30:09.555Z,138.07
2018-04-02T10:32:10.572Z,129.90
2018-04-02T10:34:11.636Z,136.93
2018-04-02T10:36:13.503Z,139.70
2018-04-02T10:38:14.490Z,142.00
2018-04-02T10:40:15.559Z,153.27
2018-04-02T10:42:16.564Z,150.20
2018-04-02T10:44:17.490Z,147.80
2018-04-02T10:46:18.459Z,146.20
2018-04-02T10:48:19.415Z,150.80
2018-04-02T10:50:20.348Z,154.13
2018-04-02T10:52:21.344Z,149.67
2018-04-02T10:54:22.294Z,152.20
2018-04-02T10:56:23.251Z,154.03
2018-04-02T10:58:24.207Z,151.67
2018-04-02T11:00:25.914Z,164.87
2018-04-02T11:02:26.868Z,149.13
2018-04-02T11:04:27.893Z,146.40
2018-04-02T11:06:29.899Z,144.03
2018-04-02T11:08:31.561Z,144.23
2018-04-02T11:10:32.040Z,134.90
2018-04-02T11:12:33.144Z,145.33
2018-04-02T11:14:34.108Z,145.03
2018-04-02T11:16:35.139Z,140.77
2018-04-02T11:18:36.189Z,151.93
2018-04-02T11:20:37.199Z,142.57
2018-04-02T11:22:38.159Z,137.33
2018-04-02T11:24:39.117Z,135.07
2018-04-02T11:26:40.100Z,128.23
2018-04-02T11:28:41.841Z,116.10
2018-04-02T11:30:42.919Z,116.37
2018-04-02T11:32:45.594Z,131.43
2018-04-02T11:34:47.277Z,120.90
2018-04-02T11:36:48.219Z,122.43
2018-04-02T11:38:50.005Z,130.63
2018-04-02T11:40:51.300Z,125.97
2018-04-02T11:42:52.488Z,121.00
2018-04-02T11:44:53.363Z,119.43
2018-04-02T11:46:54.349Z,115.37
2018-04-02T11:48:57.015Z,110.50
2018-04-02T11:50:57.971Z,118.80
2018-04-02T11:52:58.937Z,116.67
2018-04-02T11:55:01.831Z,116.30
2018-04-02T11:57:02.893Z,104.93
2018-04-02T11:59:05.549Z,110.33
2018-04-02T12:01:07.495Z,108.67
2018-04-02T12:03:08.814Z,107.70
2018-04-02T12:05:09.825Z,98.50
2018-04-02T12:07:11.685Z,108.00
2018-04-02T12:09:12.692Z,108.07
2018-04-02T12:11:13.629Z,103.70
2018-04-02T12:13:14.643Z,92.17
2018-04-02T12:15:16.328Z,87.80
2018-04-02T12:17:17.271Z,100.20
2018-04-02T12:19:18.232Z,106.47
2018-04-02T12:21:19.356Z,90.70
2018-04-02T12:23:20.463Z,97.80
2018-04-02T12:25:21.492Z,86.23
2018-04-02T12:27:22.540Z,91.13
2018-04-02T12:29:23.496Z,71.43
2018-04-02T12:31:24.456Z,69.10
2018-04-02T12:33:25.548Z,61.30
2018-04-02T12:35:26.506Z,67.60
2018-04-02T12:37:27.436Z,75.67
2018-04-02T12:39:29.127Z,77.70
2018-04-02T12:41:30.108Z,87.57
2018-04-02T12:43:31.197Z,78.33
2018-04-02T12:45:32.363Z,80.63
2018-04-02T12:47:33.470Z,81.80
2018-04-02T12:49:34.612Z,82.33
2018-04-02T12:51:35.664Z,73.73
2018-04-02T12:53:37.394Z,80.73
2018-04-02T12:55:38.336Z,85.80
2018-04-02T12:57:39.376Z,79.47
2018-04-02T12:59:40.359Z,119.93
2018-04-02T13:01:41.472Z,76.70
2018-04-02T13:03:42.431Z,77.93
2018-04-02T13:05:43.374Z,77.93
2018-04-02T13:07:44.459Z,69.73
2018-04-02T13:09:46.190Z,85.33
2018-04-02T13:11:47.181Z,72.17
2018-04-02T13:13:48.225Z,65.93
2018-04-02T13:15:49.250Z,75.77
2018-04-02T13:17:50.200Z,75.10
2018-04-02T13:19:51.227Z,77.27
2018-04-02T13:21:52.179Z,69.40
2018-04-02T13:23:53.109Z,66.13
2018-04-02T13:25:54.055Z,60.80
2018-04-02T13:27:55.007Z,57.23
2018-04-02T13:29:55.962Z,57.73
2018-04-02T13:31:56.896Z,53.43
2018-04-02T13:33:57.900Z,47.17
2018-04-02T13:35:59.736Z,47.67
2018-04-02T13:38:00.869Z,42.80
2018-04-02T13:40:01.983Z,49.67
2018-04-02T13:42:02.989Z,52.47
2018-04-02T13:44:04.056Z,58.20
2018-04-02T13:46:05.941Z,52.77
2018-04-02T13:48:06.959Z,54.37
2018-04-02T13:50:07.903Z,49.00
2018-04-02T13:52:08.851Z,50.10
2018-04-02T13:54:09.791Z,50.22
2018-04-02T13:56:10.774Z,47.47
2018-04-02T13:58:11.723Z,45.23
2018-04-02T14:00:12.666Z,49.03
2018-04-02T14:02:13.594Z,41.90
2018-04-02T14:04:15.279Z,43.70
2018-04-02T14:06:16.227Z,45.43
2018-04-02T14:08:17.259Z,46.63
2018-04-02T14:10:18.300Z,46.90
2018-04-02T14:12:20.059Z,44.30
2018-04-02T14:14:21.756Z,46.67
2018-04-02T14:16:22.710Z,40.40
2018-04-02T14:18:23.664Z,42.57
2018-04-02T14:20:24.717Z,48.97
2018-04-02T14:22:25.663Z,45.37
2018-04-02T14:24:26.595Z,42.23
2018-04-02T14:26:27.534Z,40.60
2018-04-02T14:28:28.663Z,36.93
2018-04-02T14:30:30.081Z,40.80
2018-04-02T14:32:31.339Z,36.20
2018-04-02T14:34:32.356Z,40.75
2018-04-02T14:36:33.392Z,37.60
2018-04-02T14:38:34.378Z,41.87
2018-04-02T14:40:35.356Z,39.83
2018-04-02T14:42:36.292Z,43.63
2018-04-02T14:44:37.284Z,40.77
2018-04-02T14:46:38.908Z,43.40
2018-04-02T14:48:40.614Z,37.43
2018-04-02T14:50:41.590Z,39.30
2018-04-02T14:52:42.534Z,43.10
2018-04-02T14:54:43.576Z,45.60
2018-04-02T14:56:44.868Z,43.73
2018-04-02T14:58:45.827Z,39.97
2018-04-02T15:00:46.835Z,44.73
2018-04-02T15:02:48.255Z,44.83
2018-04-02T15:04:49.215Z,44.70
2018-04-02T15:06:50.229Z,41.80
2018-04-02T15:08:51.176Z,48.70
2018-04-02T15:10:52.142Z,55.07
2018-04-02T15:12:53.197Z,38.33
2018-04-02T15:14:54.441Z,42.17
2018-04-02T15:16:55.503Z,40.03
2018-04-02T15:18:56.616Z,43.87
2018-04-02T15:20:57.675Z,41.70
2018-04-02T15:22:59.128Z,44.23
2018-04-02T15:25:00.173Z,42.47
2018-04-02T15:27:01.192Z,58.13
2018-04-02T15:29:02.904Z,39.73
2018-04-02T15:31:03.851Z,44.73
2018-04-02T15:33:04.802Z,53.40
2018-04-02T15:35:05.771Z,40.40
2018-04-02T15:37:06.712Z,36.83
2018-04-02T15:39:07.659Z,44.53
2018-04-02T15:41:08.622Z,57.90
2018-04-02T15:43:10.366Z,38.47
2018-04-02T15:45:11.316Z,42.00
2018-04-02T15:47:12.262Z,41.87
2018-04-02T15:49:14.128Z,44.30
2018-04-02T15:51:15.137Z,56.90
2018-04-02T15:53:16.080Z,56.50
2018-04-02T15:55:17.176Z,46.37
2018-04-02T15:57:18.149Z,36.03
2018-04-02T15:59:19.121Z,37.33
2018-04-02T16:01:20.628Z,81.70
2018-04-02T16:03:22.301Z,53.90
2018-04-02T16:05:23.266Z,59.43
2018-04-02T16:07:24.299Z,45.87
2018-04-02T16:09:26.062Z,50.37
2018-04-02T16:11:27.876Z,47.10
2018-04-02T16:13:28.957Z,44.00
2018-04-02T16:15:30.052Z,41.53
2018-04-02T16:17:31.080Z,48.43
2018-04-02T16:19:32.783Z,66.40
2018-04-02T16:21:33.807Z,43.07
2018-04-02T16:23:34.808Z,40.07
2018-04-02T16:25:35.802Z,40.57
2018-04-02T16:27:36.886Z,43.77
2018-04-02T16:29:37.886Z,42.63
2018-04-02T16:31:38.898Z,41.63
2018-04-02T16:33:39.834Z,36.20
2018-04-02T16:35:40.774Z,41.10
2018-04-02T16:37:41.704Z,40.17
2018-04-02T16:39:45.474Z,45.83
2018-04-02T16:41:46.548Z,44.17
2018-04-02T16:43:47.529Z,45.20
2018-04-02T16:45:48.466Z,38.57
2018-04-02T16:47:50.515Z,38.10
2018-04-02T16:49:51.480Z,41.70
2018-04-02T16:51:52.423Z,42.20
2018-04-02T16:53:53.391Z,42.42
2018-04-02T16:55:54.400Z,44.93
2018-04-02T16:57:55.410Z,40.80
2018-04-02T16:59:56.641Z,43.67
2018-04-02T17:02:04.518Z,41.57
2018-04-02T17:04:05.463Z,41.97
2018-04-02T17:06:06.544Z,37.53
2018-04-02T17:08:07.795Z,36.80
2018-04-02T17:10:09.807Z,35.07
2018-04-02T17:12:11.244Z,37.83
2018-04-02T17:14:12.280Z,37.73
2018-04-02T17:16:13.255Z,38.23
2018-04-02T17:18:14.239Z,38.43
2018-04-02T17:20:16.940Z,38.07
2018-04-02T17:22:37.231Z,42.33
2018-04-02T17:24:38.226Z,35.90
2018-04-02T17:26:44.018Z,39.97
2018-04-02T17:28:45.019Z,31.97
2018-04-02T17:30:46.775Z,37.87
2018-04-02T17:32:47.703Z,27.50
2018-04-02T17:34:48.646Z,31.33
2018-04-02T17:36:49.595Z,33.90
2018-04-02T17:38:50.622Z,29.33
2018-04-02T17:40:56.339Z,33.23
2018-04-02T17:42:58.010Z,34.10
2018-04-02T17:44:58.972Z,33.03
2018-04-02T17:46:59.912Z,30.00
2018-04-02T17:49:07.265Z,35.20
2018-04-02T17:51:09.751Z,36.47
2018-04-02T17:53:14.895Z,33.37
2018-04-02T17:55:30.919Z,35.57
2018-04-02T17:57:32.117Z,35.10
2018-04-02T17:59:33.061Z,30.03
2018-04-02T18:01:34.094Z,31.40
2018-04-02T18:03:35.027Z,32.90
2018-04-02T18:05:36.075Z,33.50
2018-04-02T18:07:37.400Z,30.67
2018-04-02T18:09:44.073Z,29.20
2018-04-02T18:11:56.072Z,34.77
2018-04-02T18:13:57.176Z,32.70
2018-04-02T18:15:58.227Z,41.77
2018-04-02T18:17:59.167Z,35.27
2018-04-02T18:20:00.112Z,39.23
2018-04-02T18:22:01.051Z,40.50
2018-04-02T18:24:02.023Z,41.57
2018-04-02T18:26:03.019Z,45.43
2018-04-02T18:28:04.710Z,53.37
2018-04-02T18:30:05.663Z,53.23
2018-04-02T18:32:10.006Z,52.90
2018-04-02T18:34:11.156Z,56.07
2018-04-02T18:36:12.188Z,54.93
2018-04-02T18:38:13.144Z,57.80
2018-04-02T18:40:14.064Z,50.03
2018-04-02T18:42:15.034Z,66.30
2018-04-02T18:44:15.987Z,53.90
2018-04-02T18:46:16.937Z,60.50
2018-04-02T18:48:17.911Z,55.83
2018-04-02T18:50:18.859Z,63.80
2018-04-02T18:52:19.782Z,61.53
2018-04-02T18:54:20.783Z,60.33
2018-04-02T18:56:21.782Z,63.07
2018-04-02T18:58:22.745Z,59.80
2018-04-02T19:00:24.439Z,64.27
2018-04-02T19:02:26.538Z,57.83
2018-04-02T19:04:27.574Z,59.47
2018-04-02T19:06:28.778Z,61.03
2018-04-02T19:08:29.767Z,53.37
2018-04-02T19:10:30.751Z,60.83
2018-04-02T19:12:32.206Z,55.90
2018-04-02T19:14:33.161Z,55.93
2018-04-02T19:16:34.123Z,57.80
2018-04-02T19:18:36.964Z,60.90
2018-04-02T19:20:38.071Z,59.83
2018-04-02T19:22:39.986Z,58.40
2018-04-02T19:24:41.088Z,66.70
2018-04-02T19:26:42.913Z,57.53
2018-04-02T19:28:43.981Z,62.90
2018-04-02T19:30:46.817Z,69.77
2018-04-02T19:32:48.523Z,61.70
2018-04-02T19:34:49.575Z,68.90
2018-04-02T19:36:50.541Z,60.57
2018-04-02T19:38:52.291Z,58.93
2018-04-02T19:40:53.391Z,61.03
2018-04-02T19:42:54.362Z,59.60
2018-04-02T19:44:55.389Z,63.13
2018-04-02T19:46:56.411Z,63.23
2018-04-02T19:48:57.423Z,57.60
2018-04-02T19:50:58.463Z,54.83
2018-04-02T19:52:59.398Z,54.17
2018-04-02T19:55:00.391Z,54.30
2018-04-02T19:57:02.111Z,58.97
2018-04-02T19:59:03.099Z,65.80
2018-04-02T20:01:04.824Z,57.13
2018-04-02T20:03:05.861Z,61.20
2018-04-02T20:05:06.930Z,59.27
2018-04-02T20:07:07.936Z,58.77
2018-04-02T20:09:09.906Z,56.37
2018-04-02T20:11:10.972Z,56.47
2018-04-02T20:13:12.862Z,57.43
2018-04-02T20:15:14.003Z,62.20
2018-04-02T20:17:14.985Z,56.87
2018-04-02T20:19:15.987Z,54.87
2018-04-02T20:21:16.971Z,56.80
2018-04-02T20:23:17.907Z,57.73
2018-04-02T20:25:19.630Z,60.47
2018-04-02T20:27:20.616Z,58.03
2018-04-02T20:29:21.607Z,55.60
2018-04-02T20:31:24.544Z,63.87
2018-04-02T20:33:25.636Z,51.80
2018-04-02T20:35:26.739Z,49.90
2018-04-02T20:37:27.799Z,57.33
2018-04-02T20:39:33.569Z,46.37
2018-04-02T20:41:34.702Z,44.77
2018-04-02T20:43:36.683Z,44.67
2018-04-02T20:47:53.049Z,43.73
2018-04-02T20:49:54.028Z,45.57
2018-04-02T20:51:57.918Z,44.07
2018-04-02T20:53:59.104Z,46.77
2018-04-02T20:56:00.072Z,43.67
2018-04-02T20:58:01.064Z,47.80
2018-04-02T21:00:02.878Z,50.83
2018-04-02T21:02:03.971Z,39.17
2018-04-02T21:04:04.903Z,47.17
2018-04-02T21:06:06.313Z,45.07
2018-04-02T21:08:07.347Z,44.80
2018-04-02T21:10:08.454Z,45.73
2018-04-02T21:12:09.624Z,46.50
2018-04-02T21:14:17.541Z,46.30
2018-04-02T21:16:18.596Z,47.63
2018-04-02T21:18:19.556Z,41.03
2018-04-02T21:20:20.572Z,47.17
2018-04-02T21:22:21.502Z,47.50
2018-04-02T21:24:23.300Z,46.20
2018-04-02T21:28:33.388Z,49.47
2018-04-02T21:30:34.411Z,49.43
2018-04-02T21:32:37.323Z,46.73
2018-04-02T21:34:38.396Z,41.93
2018-04-02T21:36:39.445Z,36.50
2018-04-02T21:38:40.468Z,41.20
2018-04-02T21:40:41.711Z,11.20
2018-04-02T21:42:43.324Z,13.03
2018-04-02T21:44:44.424Z,8.97
2018-04-02T21:46:45.751Z,16.93
2018-04-02T21:48:47.326Z,10.90
2018-04-02T21:50:49.757Z,10.07
2018-04-02T21:52:50.772Z,10.90
2018-04-02T21:54:51.748Z,10.83
2018-04-02T21:56:56.630Z,9.30
2018-04-02T21:58:58.077Z,11.80
2018-04-02T22:00:59.040Z,7.73
2018-04-02T22:03:01.591Z,7.57
2018-04-02T22:05:02.551Z,7.20
2018-04-02T22:07:03.519Z,8.43
2018-04-02T22:09:04.515Z,17.13
2018-04-02T22:11:05.445Z,7.40
2018-04-02T22:13:06.560Z,8.77
2018-04-02T22:15:07.623Z,9.07
2018-04-02T22:17:08.931Z,8.13
2018-04-02T22:19:10.025Z,7.20
2018-04-02T22:21:11.104Z,7.70
2018-04-02T22:23:12.118Z,9.17
2018-04-02T22:25:13.206Z,9.33
2018-04-02T22:27:14.211Z,6.80
2018-04-02T22:29:17.650Z,7.87
2018-04-02T22:31:18.728Z,10.33
2018-04-02T22:33:20.462Z,9.53
2018-04-02T22:35:21.535Z,10.70
2018-04-02T22:37:23.252Z,7.47
2018-04-02T22:39:24.384Z,7.13
2018-04-02T22:41:26.282Z,8.77
2018-04-02T22:43:28.142Z,9.83
2018-04-02T22:45:29.096Z,13.17
2018-04-02T22:47:30.092Z,8.33
2018-04-02T22:49:31.064Z,10.53
2018-04-02T22:51:32.018Z,8.10
2018-04-02T22:53:32.966Z,9.70
2018-04-02T22:55:34.112Z,9.60
2018-04-02T22:57:35.914Z,12.40
2018-04-02T22:59:37.718Z,10.00
2018-04-02T23:01:38.794Z,11.00
2018-04-02T23:03:39.897Z,9.00
2018-04-02T23:05:41.016Z,11.93
2018-04-02T23:07:42.862Z,8.00
2018-04-02T23:09:43.803Z,12.23
2018-04-02T23:11:44.767Z,13.10
2018-04-02T23:13:47.825Z,11.07
2018-04-02T23:15:48.830Z,10.17
2018-04-02T23:17:52.552Z,7.80
2018-04-02T23:19:53.597Z,8.03
2018-04-02T23:21:54.599Z,10.97
2018-04-02T23:23:55.637Z,9.50
2018-04-02T23:25:56.673Z,9.20
2018-04-02T23:27:57.704Z,11.97
2018-04-02T23:29:58.663Z,11.60
2018-04-02T23:31:59.599Z,11.53
2018-04-02T23:34:00.615Z,10.40
2018-04-02T23:36:01.559Z,13.37
2018-04-02T23:38:06.800Z,6.97
2018-04-02T23:40:08.044Z,9.70
2018-04-02T23:42:09.215Z,8.87
2018-04-02T23:44:10.355Z,9.87
2018-04-02T23:46:11.416Z,10.50
2018-04-02T23:48:13.264Z,10.80
2018-04-02T23:50:15.772Z,9.97
2018-04-02T23:52:18.792Z,11.20
2018-04-02T23:54:19.880Z,15.70
2018-04-02T23:56:20.840Z,15.23
2018-04-02T23:58:21.789Z,9.20
